createdAt,value
2022-08-16T00:00:03.719Z,23.31
2022-08-16T00:01:01.408Z,23.42
2022-08-16T00:02:01.454Z,23.42
2022-08-16T00:03:02.406Z,23.31
2022-08-16T00:04:01.371Z,23.31
2022-08-16T00:05:01.357Z,23.36
2022-08-16T00:06:01.343Z,23.47
2022-08-16T00:07:01.329Z,23.63
2022-08-16T00:08:01.314Z,23.20
2022-08-16T00:09:01.296Z,22.67
2022-08-16T00:10:01.293Z,22.83
2022-08-16T00:11:01.277Z,23.15
2022-08-16T00:12:01.263Z,23.31
2022-08-16T00:13:01.247Z,23.26
2022-08-16T00:14:01.240Z,23.36
2022-08-16T00:15:02.242Z,23.36
2022-08-16T00:16:01.206Z,23.42
2022-08-16T00:17:16.267Z,23.74
2022-08-16T00:18:02.205Z,23.42
2022-08-16T00:19:01.166Z,23.31
2022-08-16T00:20:01.162Z,23.58
2022-08-16T00:21:01.146Z,23.74
2022-08-16T00:22:06.867Z,23.79
2022-08-16T00:23:02.131Z,23.26
2022-08-16T00:24:04.650Z,23.74
2022-08-16T00:25:01.080Z,23.36
2022-08-16T00:26:34.835Z,23.74
2022-08-16T00:27:02.083Z,23.26
2022-08-16T00:28:01.049Z,23.31
2022-08-16T00:29:01.029Z,23.36
2022-08-16T00:30:19.083Z,23.36
2022-08-16T00:31:02.027Z,23.36
2022-08-16T00:32:06.145Z,23.36
2022-08-16T00:33:00.971Z,23.31
2022-08-16T00:34:00.962Z,23.31
2022-08-16T00:35:01.733Z,23.31
2022-08-16T00:36:00.941Z,23.79
2022-08-16T00:37:00.923Z,23.42
2022-08-16T00:38:00.922Z,23.15
2022-08-16T00:39:01.916Z,23.53
2022-08-16T00:40:00.954Z,23.26
2022-08-16T00:41:00.863Z,23.79
2022-08-16T00:42:00.862Z,23.31
2022-08-16T00:43:00.862Z,23.36
2022-08-16T00:44:00.832Z,23.74
2022-08-16T00:45:00.820Z,23.26
2022-08-16T00:46:01.075Z,23.69
2022-08-16T00:47:06.347Z,23.79
2022-08-16T00:48:00.771Z,23.26
2022-08-16T00:49:00.759Z,23.69
2022-08-16T00:50:00.743Z,23.36
2022-08-16T00:51:00.729Z,23.31
2022-08-16T00:52:00.715Z,23.36
2022-08-16T00:53:00.699Z,23.53
2022-08-16T00:54:00.693Z,23.26
2022-08-16T00:55:00.678Z,23.79
2022-08-16T00:56:00.669Z,23.31
2022-08-16T00:57:00.652Z,23.36
2022-08-16T00:58:00.958Z,23.63
2022-08-16T00:59:01.350Z,23.31
2022-08-16T01:00:01.092Z,23.63
2022-08-16T01:01:00.616Z,23.53
2022-08-16T01:02:00.581Z,23.36
2022-08-16T01:03:01.592Z,23.31
2022-08-16T01:04:00.558Z,23.79
2022-08-16T01:05:11.241Z,23.26
2022-08-16T01:06:40.321Z,23.31
2022-08-16T01:07:02.661Z,23.36
2022-08-16T01:08:00.506Z,23.42
2022-08-16T01:09:00.544Z,23.31
2022-08-16T01:10:00.482Z,23.69
2022-08-16T01:11:02.611Z,23.36
2022-08-16T01:12:00.442Z,23.26
2022-08-16T01:13:00.462Z,22.99
2022-08-16T01:14:00.420Z,23.31
2022-08-16T01:15:00.418Z,23.69
2022-08-16T01:16:00.392Z,23.42
2022-08-16T01:17:00.381Z,23.36
2022-08-16T01:18:00.366Z,23.74
2022-08-16T01:19:00.349Z,23.85
2022-08-16T01:20:00.595Z,23.20
2022-08-16T01:21:00.325Z,23.79
2022-08-16T01:22:46.977Z,23.47
2022-08-16T01:23:01.665Z,23.31
2022-08-16T01:24:02.131Z,23.74
2022-08-16T01:25:00.274Z,23.36
2022-08-16T01:26:34.367Z,23.74
2022-08-16T01:27:03.984Z,23.31
2022-08-16T01:28:00.225Z,23.47
2022-08-16T01:29:00.219Z,23.90
2022-08-16T01:30:00.322Z,23.31
2022-08-16T01:31:00.193Z,23.26
2022-08-16T01:32:00.183Z,23.69
2022-08-16T01:33:14.396Z,23.42
2022-08-16T01:34:01.175Z,23.96
2022-08-16T01:35:00.131Z,23.79
2022-08-16T01:36:00.118Z,23.26
2022-08-16T01:37:00.111Z,23.10
2022-08-16T01:38:00.095Z,23.26
2022-08-16T01:39:00.083Z,23.85
2022-08-16T01:40:00.134Z,23.74
2022-08-16T01:41:02.046Z,23.85
2022-08-16T01:42:00.044Z,23.20
2022-08-16T01:43:00.025Z,23.47
2022-08-16T01:44:01.003Z,23.69
2022-08-16T01:45:00.001Z,23.36
2022-08-16T01:45:59.989Z,23.31
2022-08-16T01:47:00.999Z,23.69
2022-08-16T01:47:59.958Z,23.31
2022-08-16T01:48:59.950Z,23.58
2022-08-16T01:50:42.186Z,23.47
2022-08-16T01:51:08.264Z,23.69
2022-08-16T01:52:00.955Z,23.31
2022-08-16T01:52:59.888Z,23.36
2022-08-16T01:53:59.872Z,23.26
2022-08-16T01:54:59.859Z,23.69
2022-08-16T01:55:59.843Z,23.69
2022-08-16T01:56:59.835Z,23.36
2022-08-16T01:57:59.821Z,23.69
2022-08-16T01:58:59.812Z,23.26
2022-08-16T01:59:59.800Z,23.26
2022-08-16T02:00:59.785Z,23.31
2022-08-16T02:02:00.588Z,23.47
2022-08-16T02:02:59.759Z,23.69
2022-08-16T02:04:10.243Z,23.31
2022-08-16T02:05:00.751Z,23.36
2022-08-16T02:05:59.710Z,23.31
2022-08-16T02:06:59.703Z,23.63
2022-08-16T02:07:59.692Z,23.69
2022-08-16T02:08:59.678Z,23.69
2022-08-16T02:10:02.136Z,23.74
2022-08-16T02:10:59.644Z,23.31
2022-08-16T02:11:59.627Z,23.42
2022-08-16T02:13:01.165Z,23.69
2022-08-16T02:13:59.600Z,23.36
2022-08-16T02:14:59.594Z,23.42
2022-08-16T02:15:59.588Z,23.79
2022-08-16T02:16:59.568Z,23.26
2022-08-16T02:18:01.441Z,23.69
2022-08-16T02:18:59.539Z,23.31
2022-08-16T02:20:00.606Z,23.74
2022-08-16T02:20:59.576Z,23.20
2022-08-16T02:22:08.825Z,23.63
2022-08-16T02:23:01.541Z,23.20
2022-08-16T02:23:59.472Z,23.31
2022-08-16T02:24:59.458Z,23.79
2022-08-16T02:26:00.021Z,23.31
2022-08-16T02:26:59.433Z,23.31
2022-08-16T02:27:59.410Z,23.31
2022-08-16T02:28:59.405Z,23.26
2022-08-16T02:30:05.436Z,23.36
2022-08-16T02:31:01.369Z,23.74
2022-08-16T02:32:03.643Z,23.74
2022-08-16T02:33:00.366Z,23.69
2022-08-16T02:33:59.335Z,23.69
2022-08-16T02:35:00.344Z,23.63
2022-08-16T02:36:00.209Z,23.69
2022-08-16T02:36:59.288Z,23.69
2022-08-16T02:38:08.679Z,23.74
2022-08-16T02:39:00.292Z,23.69
2022-08-16T02:39:59.290Z,23.69
2022-08-16T02:40:59.241Z,23.74
2022-08-16T02:41:59.230Z,23.26
2022-08-16T02:42:59.213Z,23.26
2022-08-16T02:43:59.204Z,23.31
2022-08-16T02:44:59.182Z,23.69
2022-08-16T02:45:59.172Z,23.47
2022-08-16T02:46:59.158Z,23.26
2022-08-16T02:48:01.677Z,23.69
2022-08-16T02:49:00.392Z,23.42
2022-08-16T02:50:53.659Z,23.69
2022-08-16T02:51:06.766Z,23.63
2022-08-16T02:52:00.117Z,23.31
2022-08-16T02:52:59.077Z,23.74
2022-08-16T02:53:59.198Z,23.36
2022-08-16T02:54:59.047Z,23.36
2022-08-16T02:55:59.216Z,23.74
2022-08-16T02:56:59.017Z,23.26
2022-08-16T02:57:59.011Z,23.69
2022-08-16T02:58:58.989Z,23.47
2022-08-16T02:59:58.983Z,23.36
2022-08-16T03:00:59.031Z,23.42
2022-08-16T03:01:59.014Z,23.58
2022-08-16T03:02:58.942Z,23.26
2022-08-16T03:04:41.538Z,23.74
2022-08-16T03:04:59.938Z,23.53
2022-08-16T03:05:58.910Z,23.74
2022-08-16T03:06:58.887Z,23.26
2022-08-16T03:07:58.876Z,23.69
2022-08-16T03:08:58.865Z,23.85
2022-08-16T03:10:00.472Z,23.47
2022-08-16T03:10:59.226Z,23.26
2022-08-16T03:11:58.817Z,23.85
2022-08-16T03:12:59.185Z,23.79
2022-08-16T03:13:58.791Z,23.26
2022-08-16T03:14:58.779Z,23.85
2022-08-16T03:15:58.768Z,24.22
2022-08-16T03:17:00.735Z,23.74
2022-08-16T03:17:58.747Z,23.36
2022-08-16T03:18:58.726Z,23.74
2022-08-16T03:20:02.567Z,23.47
2022-08-16T03:20:58.693Z,23.74
2022-08-16T03:21:58.686Z,23.96
2022-08-16T03:22:58.667Z,23.63
2022-08-16T03:23:58.657Z,23.69
2022-08-16T03:24:58.645Z,23.79
2022-08-16T03:25:58.629Z,24.06
2022-08-16T03:26:58.762Z,23.63
2022-08-16T03:27:58.607Z,23.42
2022-08-16T03:28:58.595Z,23.69
2022-08-16T03:29:58.579Z,23.69
2022-08-16T03:30:58.565Z,23.74
2022-08-16T03:31:59.293Z,23.42
2022-08-16T03:32:58.536Z,23.74
2022-08-16T03:33:58.528Z,23.69
2022-08-16T03:34:58.506Z,23.63
2022-08-16T03:35:58.498Z,23.79
2022-08-16T03:36:58.479Z,23.74
2022-08-16T03:38:02.631Z,23.69
2022-08-16T03:38:58.449Z,23.74
2022-08-16T03:40:02.714Z,23.26
2022-08-16T03:40:58.424Z,23.69
2022-08-16T03:42:00.090Z,23.74
2022-08-16T03:43:00.450Z,23.63
2022-08-16T03:43:59.421Z,23.36
2022-08-16T03:45:03.463Z,23.74
2022-08-16T03:45:58.366Z,23.74
2022-08-16T03:46:58.377Z,23.63
2022-08-16T03:47:59.958Z,23.69
2022-08-16T03:48:58.316Z,23.69
2022-08-16T03:49:59.399Z,23.36
2022-08-16T03:51:00.145Z,23.79
2022-08-16T03:51:58.291Z,23.79
2022-08-16T03:53:05.399Z,23.47
2022-08-16T03:54:01.169Z,23.31
2022-08-16T03:54:59.423Z,23.69
2022-08-16T03:55:58.234Z,23.63
2022-08-16T03:56:58.736Z,23.31
2022-08-16T03:57:58.199Z,23.79
2022-08-16T03:58:58.183Z,23.15
2022-08-16T03:59:58.166Z,23.69
2022-08-16T04:00:59.426Z,23.69
2022-08-16T04:01:58.139Z,23.90
2022-08-16T04:02:58.124Z,23.36
2022-08-16T04:03:58.119Z,23.69
2022-08-16T04:04:58.095Z,23.85
2022-08-16T04:05:58.091Z,23.79
2022-08-16T04:06:58.075Z,23.85
2022-08-16T04:07:58.060Z,23.26
2022-08-16T04:08:58.049Z,23.79
2022-08-16T04:09:58.033Z,23.69
2022-08-16T04:10:58.193Z,23.69
2022-08-16T04:11:58.001Z,23.79
2022-08-16T04:13:04.152Z,23.69
2022-08-16T04:14:33.019Z,23.63
2022-08-16T04:14:58.989Z,23.20
2022-08-16T04:15:57.956Z,23.74
2022-08-16T04:16:57.932Z,23.26
2022-08-16T04:17:57.932Z,23.63
2022-08-16T04:19:02.170Z,23.63
2022-08-16T04:19:59.897Z,23.31
2022-08-16T04:20:57.879Z,23.31
2022-08-16T04:21:57.865Z,23.31
2022-08-16T04:22:57.850Z,23.74
2022-08-16T04:23:57.837Z,23.31
2022-08-16T04:24:59.288Z,23.69
2022-08-16T04:25:57.815Z,23.47
2022-08-16T04:26:57.793Z,23.26
2022-08-16T04:27:58.310Z,23.31
2022-08-16T04:29:15.033Z,23.69
2022-08-16T04:30:02.811Z,23.42
2022-08-16T04:30:57.735Z,23.26
2022-08-16T04:31:58.295Z,23.26
2022-08-16T04:32:57.706Z,23.36
2022-08-16T04:33:57.697Z,23.58
2022-08-16T04:34:57.680Z,23.74
2022-08-16T04:35:57.676Z,23.74
2022-08-16T04:36:57.652Z,23.69
2022-08-16T04:37:57.644Z,23.53
2022-08-16T04:38:57.627Z,23.79
2022-08-16T04:39:57.702Z,23.69
2022-08-16T04:40:57.934Z,23.79
2022-08-16T04:41:57.592Z,23.74
2022-08-16T04:42:57.576Z,23.53
2022-08-16T04:43:57.561Z,23.85
2022-08-16T04:44:57.690Z,23.79
2022-08-16T04:46:00.208Z,23.79
2022-08-16T04:47:02.528Z,23.36
2022-08-16T04:47:57.508Z,23.63
2022-08-16T04:48:57.499Z,23.90
2022-08-16T04:49:57.477Z,23.79
2022-08-16T04:50:57.458Z,23.63
2022-08-16T04:51:57.445Z,23.79
2022-08-16T04:52:57.429Z,23.69
2022-08-16T04:53:57.419Z,23.36
2022-08-16T04:54:57.420Z,23.85
2022-08-16T04:55:57.399Z,23.63
2022-08-16T04:56:57.378Z,23.79
2022-08-16T04:57:57.365Z,23.63
2022-08-16T04:58:57.614Z,23.63
2022-08-16T04:59:57.341Z,23.74
2022-08-16T05:00:57.324Z,23.63
2022-08-16T05:01:58.712Z,50.17
2022-08-16T05:02:58.915Z,50.22
2022-08-16T05:04:00.704Z,50.11
2022-08-16T05:04:57.262Z,37.81
2022-08-16T05:06:04.999Z,32.39
2022-08-16T05:06:58.256Z,29.59
2022-08-16T05:07:59.436Z,29.11
2022-08-16T05:08:57.209Z,28.79
2022-08-16T05:09:57.197Z,28.14
2022-08-16T05:10:58.747Z,27.77
2022-08-16T05:11:57.799Z,27.82
2022-08-16T05:12:57.159Z,27.71
2022-08-16T05:13:57.149Z,26.80
2022-08-16T05:15:01.823Z,27.34
2022-08-16T05:15:57.113Z,26.69
2022-08-16T05:16:57.102Z,26.80
2022-08-16T05:17:59.061Z,26.64
2022-08-16T05:18:58.437Z,26.64
2022-08-16T05:19:58.494Z,26.10
2022-08-16T05:21:09.430Z,26.05
2022-08-16T05:21:58.135Z,26.10
2022-08-16T05:22:57.023Z,25.35
2022-08-16T05:24:00.080Z,26.05
2022-08-16T05:24:56.993Z,25.51
2022-08-16T05:25:56.980Z,25.46
2022-08-16T05:26:56.975Z,25.57
2022-08-16T05:27:56.953Z,25.51
2022-08-16T05:28:56.948Z,25.46
2022-08-16T05:30:01.943Z,25.51
2022-08-16T05:30:57.936Z,25.08
2022-08-16T05:31:56.903Z,25.03
2022-08-16T05:32:56.890Z,24.98
2022-08-16T05:33:56.875Z,25.19
2022-08-16T05:34:56.860Z,25.08
2022-08-16T05:35:56.840Z,24.92
2022-08-16T05:36:56.829Z,25.08
2022-08-16T05:37:56.814Z,24.76
2022-08-16T05:38:58.151Z,24.87
2022-08-16T05:39:56.809Z,24.49
2022-08-16T05:40:59.531Z,24.65
2022-08-16T05:41:56.760Z,24.87
2022-08-16T05:42:56.893Z,24.60
2022-08-16T05:43:59.171Z,24.76
2022-08-16T05:44:56.728Z,24.12
2022-08-16T05:45:56.710Z,24.01
2022-08-16T05:46:56.698Z,24.65
2022-08-16T05:47:59.510Z,24.38
2022-08-16T05:49:01.725Z,24.76
2022-08-16T05:49:57.681Z,24.87
2022-08-16T05:50:56.639Z,24.22
2022-08-16T05:51:56.625Z,24.38
2022-08-16T05:52:56.617Z,24.01
2022-08-16T05:53:56.602Z,24.06
2022-08-16T05:54:58.492Z,24.33
2022-08-16T05:55:56.574Z,24.06
2022-08-16T05:56:56.565Z,23.79
2022-08-16T05:57:56.549Z,23.85
2022-08-16T05:58:56.533Z,24.06
2022-08-16T06:00:00.284Z,24.17
2022-08-16T06:00:56.504Z,23.69
2022-08-16T06:01:56.563Z,23.79
2022-08-16T06:02:56.482Z,23.63
2022-08-16T06:03:56.462Z,23.74
2022-08-16T06:04:56.453Z,24.17
2022-08-16T06:05:56.436Z,23.79
2022-08-16T06:06:57.478Z,23.74
2022-08-16T06:07:58.270Z,23.69
2022-08-16T06:08:56.403Z,23.63
2022-08-16T06:09:56.403Z,23.74
2022-08-16T06:11:04.654Z,23.74
2022-08-16T06:11:57.383Z,23.85
2022-08-16T06:12:56.415Z,23.63
2022-08-16T06:13:56.332Z,23.69
2022-08-16T06:14:56.319Z,23.47
2022-08-16T06:15:56.305Z,23.79
2022-08-16T06:16:56.297Z,23.74
2022-08-16T06:17:57.304Z,23.74
2022-08-16T06:18:56.272Z,23.63
2022-08-16T06:19:56.249Z,23.74
2022-08-16T06:20:56.239Z,23.69
2022-08-16T06:21:56.222Z,23.74
2022-08-16T06:22:58.769Z,23.31
2022-08-16T06:23:57.228Z,23.69
2022-08-16T06:24:56.209Z,23.69
2022-08-16T06:25:56.172Z,23.36
2022-08-16T06:26:57.858Z,23.58
2022-08-16T06:27:57.582Z,23.69
2022-08-16T06:28:56.132Z,23.69
2022-08-16T06:29:56.115Z,23.42
2022-08-16T06:30:56.112Z,23.26
2022-08-16T06:31:56.091Z,23.74
2022-08-16T06:32:56.083Z,23.26
2022-08-16T06:33:56.065Z,23.42
2022-08-16T06:35:02.863Z,23.36
2022-08-16T06:35:59.476Z,23.31
2022-08-16T06:36:59.393Z,23.36
2022-08-16T06:37:56.010Z,23.26
2022-08-16T06:38:56.968Z,23.79
2022-08-16T06:39:56.072Z,23.31
2022-08-16T06:40:55.977Z,23.15
2022-08-16T06:41:55.958Z,23.36
2022-08-16T06:42:57.592Z,23.36
2022-08-16T06:43:55.926Z,23.36
2022-08-16T06:44:55.915Z,23.36
2022-08-16T06:45:55.901Z,23.36
2022-08-16T06:46:55.896Z,23.42
2022-08-16T06:47:56.418Z,23.42
2022-08-16T06:48:55.871Z,23.26
2022-08-16T06:49:55.852Z,22.77
2022-08-16T06:50:55.843Z,23.42
2022-08-16T06:52:03.146Z,23.47
2022-08-16T06:53:17.192Z,23.69
2022-08-16T06:53:56.822Z,22.67
2022-08-16T06:54:55.784Z,23.47
2022-08-16T06:55:55.768Z,23.36
2022-08-16T06:56:55.761Z,23.79
2022-08-16T06:57:55.742Z,23.69
2022-08-16T06:58:55.738Z,23.26
2022-08-16T06:59:58.379Z,23.69
2022-08-16T07:00:55.801Z,23.74
2022-08-16T07:01:58.270Z,23.26
2022-08-16T07:02:56.085Z,23.31
2022-08-16T07:03:57.070Z,23.26
2022-08-16T07:04:55.652Z,23.10
2022-08-16T07:05:55.636Z,23.63
2022-08-16T07:06:55.632Z,23.96
2022-08-16T07:07:55.609Z,23.31
2022-08-16T07:08:55.602Z,23.36
2022-08-16T07:09:55.590Z,23.85
2022-08-16T07:10:55.611Z,23.31
2022-08-16T07:11:55.559Z,23.42
2022-08-16T07:13:03.356Z,23.20
2022-08-16T07:14:03.701Z,23.69
2022-08-16T07:14:59.947Z,23.42
2022-08-16T07:15:55.510Z,23.85
2022-08-16T07:16:55.496Z,23.74
2022-08-16T07:17:55.484Z,23.26
2022-08-16T07:18:58.761Z,23.26
2022-08-16T07:20:30.177Z,23.79
2022-08-16T07:20:59.995Z,23.31
2022-08-16T07:21:59.704Z,23.15
2022-08-16T07:22:59.129Z,23.36
2022-08-16T07:23:57.991Z,23.42
2022-08-16T07:24:56.412Z,23.47
2022-08-16T07:25:55.377Z,23.42
2022-08-16T07:26:55.364Z,23.42
2022-08-16T07:27:55.347Z,23.36
2022-08-16T07:28:55.339Z,23.36
2022-08-16T07:29:56.348Z,23.31
2022-08-16T07:30:55.318Z,23.10
2022-08-16T07:31:55.299Z,23.31
2022-08-16T07:32:55.280Z,23.36
2022-08-16T07:33:55.344Z,23.42
2022-08-16T07:34:55.260Z,23.31
2022-08-16T07:35:55.239Z,23.31
2022-08-16T07:36:58.216Z,23.69
2022-08-16T07:37:55.284Z,23.42
2022-08-16T07:38:55.206Z,23.31
2022-08-16T07:39:55.241Z,23.31
2022-08-16T07:41:09.734Z,22.99
2022-08-16T07:41:56.188Z,23.31
2022-08-16T07:42:55.180Z,23.47
2022-08-16T07:43:55.133Z,23.42
2022-08-16T07:44:55.124Z,23.63
2022-08-16T07:45:55.112Z,23.36
2022-08-16T07:46:55.479Z,22.77
2022-08-16T07:47:55.080Z,22.83
2022-08-16T07:48:55.169Z,22.67
2022-08-16T07:49:57.935Z,23.26
2022-08-16T07:50:58.934Z,23.31
2022-08-16T07:51:56.143Z,22.93
2022-08-16T07:52:55.027Z,23.26
2022-08-16T07:54:02.599Z,22.72
2022-08-16T07:54:56.017Z,23.31
2022-08-16T07:55:54.976Z,22.67
2022-08-16T07:56:54.973Z,23.31
2022-08-16T07:58:01.106Z,22.77
2022-08-16T07:58:57.921Z,22.72
2022-08-16T07:59:57.157Z,22.77
2022-08-16T08:00:54.968Z,22.83
2022-08-16T08:01:54.898Z,22.83
2022-08-16T08:02:54.898Z,22.83
2022-08-16T08:03:54.878Z,22.72
2022-08-16T08:04:54.863Z,23.42
2022-08-16T08:05:54.853Z,22.67
2022-08-16T08:06:54.836Z,22.88
2022-08-16T08:07:54.821Z,22.83
2022-08-16T08:08:57.230Z,23.10
2022-08-16T08:09:54.798Z,22.77
2022-08-16T08:10:54.795Z,22.72
2022-08-16T08:12:00.925Z,22.83
2022-08-16T08:12:55.779Z,22.72
2022-08-16T08:13:54.750Z,22.88
2022-08-16T08:14:54.747Z,22.83
2022-08-16T08:15:54.733Z,22.72
2022-08-16T08:16:54.721Z,22.67
2022-08-16T08:17:54.708Z,22.72
2022-08-16T08:18:56.041Z,22.67
2022-08-16T08:19:55.703Z,22.72
2022-08-16T08:20:59.608Z,23.04
2022-08-16T08:21:59.258Z,22.34
2022-08-16T08:23:00.664Z,22.77
2022-08-16T08:23:54.622Z,22.77
2022-08-16T08:24:59.091Z,22.40
2022-08-16T08:25:55.810Z,23.10
2022-08-16T08:26:54.587Z,22.34
2022-08-16T08:27:57.530Z,22.50
2022-08-16T08:28:54.567Z,22.18
2022-08-16T08:30:50.610Z,23.20
2022-08-16T08:31:01.129Z,22.72
2022-08-16T08:31:55.547Z,22.34
2022-08-16T08:32:59.992Z,22.83
2022-08-16T08:33:55.521Z,22.29
2022-08-16T08:34:54.497Z,22.50
2022-08-16T08:35:54.479Z,22.40
2022-08-16T08:36:54.742Z,22.34
2022-08-16T08:37:56.269Z,22.34
2022-08-16T08:38:54.443Z,22.34
2022-08-16T08:39:55.150Z,22.40
2022-08-16T08:40:54.413Z,22.34
2022-08-16T08:41:55.079Z,22.40
2022-08-16T08:42:57.615Z,22.24
2022-08-16T08:43:54.379Z,22.45
2022-08-16T08:44:54.372Z,22.34
2022-08-16T08:45:54.352Z,21.97
2022-08-16T08:47:00.703Z,22.34
2022-08-16T08:47:58.613Z,22.61
2022-08-16T08:48:59.644Z,22.34
2022-08-16T08:49:58.097Z,22.45
2022-08-16T08:50:54.302Z,22.34
2022-08-16T08:51:54.289Z,22.50
2022-08-16T08:52:54.277Z,22.34
2022-08-16T08:53:57.353Z,22.56
2022-08-16T08:54:54.245Z,22.61
2022-08-16T08:55:59.248Z,22.29
2022-08-16T08:56:54.224Z,21.91
2022-08-16T08:57:54.205Z,22.29
2022-08-16T08:58:58.302Z,22.50
2022-08-16T08:59:54.196Z,22.34
2022-08-16T09:00:54.174Z,22.02
2022-08-16T09:01:58.148Z,22.45
2022-08-16T09:02:54.405Z,22.13
2022-08-16T09:03:54.160Z,22.45
2022-08-16T09:04:54.132Z,22.40
2022-08-16T09:05:54.119Z,22.08
2022-08-16T09:06:54.112Z,22.34
2022-08-16T09:08:00.413Z,22.34
2022-08-16T09:08:55.102Z,22.29
2022-08-16T09:10:06.144Z,22.29
2022-08-16T09:11:02.287Z,22.40
2022-08-16T09:12:06.360Z,22.34
2022-08-16T09:12:55.044Z,22.45
2022-08-16T09:13:54.012Z,22.45
2022-08-16T09:14:54.003Z,22.02
2022-08-16T09:15:53.986Z,22.34
2022-08-16T09:17:01.580Z,22.40
2022-08-16T09:17:55.103Z,21.97
2022-08-16T09:18:54.019Z,22.29
2022-08-16T09:19:55.624Z,21.91
2022-08-16T09:20:58.389Z,22.34
2022-08-16T09:21:55.981Z,22.34
2022-08-16T09:22:54.485Z,22.40
2022-08-16T09:23:53.892Z,22.40
2022-08-16T09:24:54.206Z,21.91
2022-08-16T09:25:54.892Z,21.91
2022-08-16T09:26:53.858Z,21.97
2022-08-16T09:27:58.038Z,22.40
2022-08-16T09:29:15.049Z,22.08
2022-08-16T09:30:00.397Z,21.81
2022-08-16T09:30:54.823Z,22.29
2022-08-16T09:31:53.891Z,22.02
2022-08-16T09:32:53.786Z,21.65
2022-08-16T09:33:53.771Z,22.45
2022-08-16T09:34:53.762Z,21.97
2022-08-16T09:35:54.414Z,21.97
2022-08-16T09:36:54.550Z,22.08
2022-08-16T09:38:00.968Z,21.86
2022-08-16T09:38:59.944Z,22.02
2022-08-16T09:39:53.730Z,21.97
2022-08-16T09:40:53.714Z,21.97
2022-08-16T09:41:54.263Z,22.02
2022-08-16T09:42:56.059Z,22.02
2022-08-16T09:44:00.612Z,21.91
2022-08-16T09:45:11.227Z,21.91
2022-08-16T09:45:54.693Z,22.02
2022-08-16T09:46:57.550Z,22.13
2022-08-16T09:47:57.120Z,22.02
2022-08-16T09:48:53.593Z,21.91
2022-08-16T09:49:53.578Z,21.97
2022-08-16T09:50:53.559Z,22.02
2022-08-16T09:51:53.698Z,21.91
2022-08-16T09:52:53.534Z,21.97
2022-08-16T09:53:53.723Z,21.86
2022-08-16T09:54:53.508Z,21.97
2022-08-16T09:55:53.502Z,22.02
2022-08-16T09:56:53.851Z,22.08
2022-08-16T09:57:53.478Z,21.97
2022-08-16T09:59:04.848Z,21.97
2022-08-16T09:59:56.510Z,21.91
2022-08-16T10:00:53.441Z,21.91
2022-08-16T10:01:53.436Z,32.39
2022-08-16T10:02:53.457Z,50.27
2022-08-16T10:04:01.785Z,50.33
2022-08-16T10:04:55.296Z,39.16
2022-08-16T10:05:53.386Z,32.39
2022-08-16T10:06:53.412Z,29.59
2022-08-16T10:07:56.639Z,29.22
2022-08-16T10:09:04.414Z,28.25
2022-08-16T10:09:56.043Z,28.31
2022-08-16T10:10:53.318Z,27.93
2022-08-16T10:11:53.523Z,27.55
2022-08-16T10:12:55.927Z,27.39
2022-08-16T10:13:53.295Z,26.86
2022-08-16T10:14:53.266Z,26.59
2022-08-16T10:15:55.449Z,26.91
2022-08-16T10:16:59.552Z,26.43
2022-08-16T10:18:01.521Z,26.21
2022-08-16T10:19:01.375Z,26.21
2022-08-16T10:19:54.229Z,26.05
2022-08-16T10:20:53.198Z,25.51
2022-08-16T10:21:56.315Z,25.46
2022-08-16T10:23:02.065Z,25.51
2022-08-16T10:23:54.810Z,25.51
2022-08-16T10:24:55.916Z,25.51
2022-08-16T10:27:18.379Z,24.76
2022-08-16T10:27:18.900Z,25.14
2022-08-16T10:28:05.883Z,24.71
2022-08-16T10:28:54.126Z,24.71
2022-08-16T10:30:00.317Z,24.76
2022-08-16T10:30:56.526Z,24.71
2022-08-16T10:31:53.461Z,24.81
2022-08-16T10:32:53.056Z,24.81
2022-08-16T10:33:53.052Z,24.22
2022-08-16T10:34:53.032Z,24.12
2022-08-16T10:35:53.030Z,24.71
2022-08-16T10:36:54.287Z,24.28
2022-08-16T10:37:53.009Z,24.06
2022-08-16T10:38:53.076Z,24.12
2022-08-16T10:39:53.003Z,24.28
2022-08-16T10:40:52.986Z,24.17
2022-08-16T10:41:52.956Z,24.12
2022-08-16T10:42:52.942Z,24.17
2022-08-16T10:43:53.045Z,24.12
2022-08-16T10:44:53.684Z,24.12
2022-08-16T10:45:57.299Z,23.69
2022-08-16T10:46:53.917Z,23.74
2022-08-16T10:48:00.671Z,24.12
2022-08-16T10:48:53.890Z,23.74
2022-08-16T10:49:52.856Z,23.69
2022-08-16T10:50:52.850Z,23.69
2022-08-16T10:52:01.175Z,23.69
2022-08-16T10:52:56.825Z,23.69
2022-08-16T10:53:52.834Z,23.58
2022-08-16T10:55:40.347Z,23.69
2022-08-16T10:55:57.834Z,23.85
2022-08-16T10:56:56.794Z,23.85
2022-08-16T10:57:52.763Z,23.79
2022-08-16T10:58:52.806Z,23.74
2022-08-16T10:59:58.273Z,23.96
2022-08-16T11:00:57.173Z,23.69
2022-08-16T11:02:58.725Z,23.69
2022-08-16T11:03:54.574Z,23.36
2022-08-16T11:05:09.394Z,23.42
2022-08-16T11:06:00.942Z,23.42
2022-08-16T11:07:43.026Z,23.42
2022-08-16T11:07:54.107Z,23.36
2022-08-16T11:09:20.989Z,23.31
2022-08-16T11:09:53.916Z,23.36
2022-08-16T11:11:07.057Z,23.47
2022-08-16T11:12:13.676Z,22.99
2022-08-16T11:12:53.600Z,23.69
2022-08-16T11:14:10.604Z,23.42
2022-08-16T11:15:55.908Z,23.10
2022-08-16T11:17:09.544Z,22.88
2022-08-16T11:19:03.222Z,22.88
2022-08-16T11:19:04.503Z,22.61
2022-08-16T11:20:36.638Z,22.88
2022-08-16T11:20:53.516Z,22.77
2022-08-16T11:22:52.465Z,22.77
2022-08-16T11:23:58.085Z,22.77
2022-08-16T11:26:16.266Z,22.72
2022-08-16T11:27:52.404Z,22.72
2022-08-16T11:29:52.904Z,22.93
2022-08-16T11:30:57.335Z,22.77
2022-08-16T11:31:53.948Z,22.93
2022-08-16T11:32:52.341Z,22.34
2022-08-16T11:33:52.840Z,22.40
2022-08-16T11:35:14.122Z,22.83
2022-08-16T11:36:53.853Z,22.83
2022-08-16T11:38:47.665Z,22.88
2022-08-16T11:38:57.587Z,22.67
2022-08-16T11:39:55.410Z,22.45
2022-08-16T11:40:53.432Z,22.88
2022-08-16T11:41:53.046Z,22.77
2022-08-16T11:42:52.230Z,22.45
2022-08-16T11:43:52.221Z,22.34
2022-08-16T11:44:56.283Z,23.04
2022-08-16T11:45:53.906Z,22.45
2022-08-16T11:46:52.188Z,22.45
2022-08-16T11:47:52.182Z,22.34
2022-08-16T11:48:52.171Z,22.34
2022-08-16T11:49:52.157Z,22.50
2022-08-16T11:50:52.136Z,22.18
2022-08-16T11:51:52.140Z,22.77
2022-08-16T11:52:52.114Z,22.34
2022-08-16T11:53:52.109Z,22.02
2022-08-16T11:54:53.935Z,22.29
2022-08-16T11:55:54.871Z,22.56
2022-08-16T11:56:56.888Z,22.34
2022-08-16T11:57:57.362Z,22.34
2022-08-16T11:58:57.005Z,22.34
2022-08-16T11:59:53.714Z,22.24
2022-08-16T12:00:53.497Z,22.40
2022-08-16T12:01:55.261Z,22.40
2022-08-16T12:02:53.044Z,22.40
2022-08-16T12:03:52.087Z,22.24
2022-08-16T12:04:52.160Z,22.34
2022-08-16T12:05:52.215Z,22.02
2022-08-16T12:06:53.559Z,22.02
2022-08-16T12:07:51.952Z,22.34
2022-08-16T12:08:51.943Z,22.40
2022-08-16T12:09:53.158Z,22.02
2022-08-16T12:10:51.918Z,22.02
2022-08-16T12:11:52.654Z,22.45
2022-08-16T12:12:52.108Z,22.45
2022-08-16T12:13:51.885Z,22.08
2022-08-16T12:14:59.800Z,22.34
2022-08-16T12:15:52.904Z,22.02
2022-08-16T12:16:55.564Z,22.08
2022-08-16T12:17:51.852Z,22.02
2022-08-16T12:18:51.841Z,21.97
2022-08-16T12:19:51.829Z,21.97
2022-08-16T12:20:51.809Z,22.02
2022-08-16T12:21:58.394Z,22.02
2022-08-16T12:22:52.813Z,22.56
2022-08-16T12:23:51.784Z,22.02
2022-08-16T12:24:52.547Z,22.02
2022-08-16T12:25:51.764Z,22.08
2022-08-16T12:26:51.751Z,22.08
2022-08-16T12:27:51.743Z,21.97
2022-08-16T12:28:54.763Z,21.97
2022-08-16T12:29:51.728Z,22.08
2022-08-16T12:30:51.703Z,21.97
2022-08-16T12:32:01.224Z,22.02
2022-08-16T12:32:54.581Z,22.02
2022-08-16T12:33:54.588Z,21.97
2022-08-16T12:34:53.215Z,22.34
2022-08-16T12:35:51.659Z,22.08
2022-08-16T12:36:51.648Z,22.08
2022-08-16T12:37:55.463Z,21.97
2022-08-16T12:38:53.072Z,22.13
2022-08-16T12:39:52.030Z,22.08
2022-08-16T12:40:55.558Z,21.70
2022-08-16T12:41:51.593Z,21.38
2022-08-16T12:42:52.941Z,21.91
2022-08-16T12:43:51.572Z,21.38
2022-08-16T12:44:51.557Z,22.08
2022-08-16T12:45:51.545Z,21.54
2022-08-16T12:46:51.528Z,22.02
2022-08-16T12:47:53.260Z,22.02
2022-08-16T12:48:52.795Z,21.43
2022-08-16T12:49:51.496Z,22.13
2022-08-16T12:50:51.496Z,22.08
2022-08-16T12:51:58.059Z,21.38
2022-08-16T12:52:53.523Z,21.43
2022-08-16T12:53:51.478Z,21.38
2022-08-16T12:54:54.951Z,22.02
2022-08-16T12:55:51.434Z,21.54
2022-08-16T12:56:51.418Z,22.02
2022-08-16T12:57:58.243Z,21.91
2022-08-16T12:58:52.654Z,21.38